createdAt,value
2018-11-10T00:00:18.978Z,62.67
2018-11-10T00:02:53.943Z,64.10
2018-11-10T00:05:25.120Z,72.33
2018-11-10T00:07:55.042Z,66.53
2018-11-10T00:10:25.095Z,74.97
2018-11-10T00:12:55.186Z,68.43
2018-11-10T00:15:24.906Z,66.63
2018-11-10T00:17:55.351Z,66.80
2018-11-10T00:20:31.909Z,73.50
2018-11-10T00:23:05.263Z,66.00
2018-11-10T00:25:36.791Z,70.65
2018-11-10T00:28:07.662Z,91.03
2018-11-10T00:30:38.620Z,70.22
2018-11-10T00:33:08.355Z,74.70
2018-11-10T00:35:39.211Z,74.30
2018-11-10T00:38:09.517Z,71.20
2018-11-10T00:40:46.677Z,75.60
2018-11-10T00:43:20.020Z,66.67
2018-11-10T00:45:52.190Z,65.70
2018-11-10T00:48:26.447Z,75.90
2018-11-10T00:50:59.403Z,69.33
2018-11-10T00:53:31.271Z,62.27
2018-11-10T00:56:01.171Z,67.97
2018-11-10T01:01:11.659Z,66.07
2018-11-10T01:03:41.567Z,62.83
2018-11-10T01:06:13.761Z,65.70
2018-11-10T01:08:43.684Z,61.70
2018-11-10T01:11:13.539Z,69.93
2018-11-10T01:13:57.702Z,58.53
2018-11-10T01:16:27.316Z,68.43
2018-11-10T01:18:57.143Z,65.43
2018-11-10T01:21:26.775Z,60.87
2018-11-10T01:23:57.807Z,66.33
2018-11-10T01:26:28.246Z,68.03
2018-11-10T01:28:57.835Z,64.60
2018-11-10T01:31:29.464Z,65.90
2018-11-10T01:33:59.091Z,53.63
2018-11-10T01:36:36.385Z,66.50
2018-11-10T01:39:09.703Z,61.13
2018-11-10T01:41:40.514Z,62.43
2018-11-10T01:44:15.279Z,62.50
2018-11-10T01:46:44.915Z,60.35
2018-11-10T01:49:14.523Z,61.67
2018-11-10T01:51:46.419Z,66.15
2018-11-10T01:54:18.387Z,60.33
2018-11-10T01:56:51.811Z,70.52
2018-11-10T01:59:22.783Z,59.73
2018-11-10T02:02:00.825Z,69.22
2018-11-10T02:04:30.495Z,59.18
2018-11-10T02:07:07.603Z,67.60
2018-11-10T02:09:38.231Z,55.10
2018-11-10T02:12:14.155Z,65.13
2018-11-10T02:14:44.787Z,76.00
2018-11-10T02:17:17.563Z,69.05
2018-11-10T02:19:47.723Z,66.77
2018-11-10T02:22:18.371Z,69.40
2018-11-10T02:24:49.508Z,64.60
2018-11-10T02:27:23.543Z,67.40
2018-11-10T02:29:59.207Z,67.03
2018-11-10T02:32:28.861Z,77.17
2018-11-10T02:34:58.527Z,64.42
2018-11-10T02:37:35.487Z,66.25
2018-11-10T02:40:06.041Z,63.52
2018-11-10T02:42:35.702Z,71.83
2018-11-10T02:45:07.848Z,63.57
2018-11-10T02:47:37.774Z,66.67
2018-11-10T02:50:13.442Z,71.20
2018-11-10T02:52:44.402Z,69.45
2018-11-10T02:55:19.711Z,71.43
2018-11-10T02:57:49.291Z,66.37
2018-11-10T03:00:18.919Z,72.37
2018-11-10T03:02:48.700Z,72.60
2018-11-10T03:05:18.377Z,71.00
2018-11-10T03:07:48.440Z,78.83
2018-11-10T03:10:23.515Z,75.52
2018-11-10T03:12:53.107Z,85.40
2018-11-10T03:15:24.755Z,68.70
2018-11-10T03:17:54.498Z,90.57
2018-11-10T03:20:24.467Z,67.23
2018-11-10T03:22:56.079Z,68.37
2018-11-10T03:25:26.567Z,86.78
2018-11-10T03:27:56.336Z,76.93
2018-11-10T03:30:26.959Z,75.60
2018-11-10T03:32:56.771Z,71.82
2018-11-10T03:35:27.413Z,79.57
2018-11-10T03:37:57.247Z,71.90
2018-11-10T03:40:27.119Z,73.60
2018-11-10T03:42:56.683Z,76.10
2018-11-10T03:45:28.263Z,69.83
2018-11-10T03:47:59.814Z,67.05
2018-11-10T03:50:29.523Z,80.07
2018-11-10T03:53:00.292Z,68.20
2018-11-10T03:55:33.471Z,72.93
2018-11-10T03:58:03.380Z,81.55
2018-11-10T04:00:34.351Z,85.55
2018-11-10T04:03:03.963Z,81.23
2018-11-10T04:05:33.603Z,82.33
2018-11-10T04:08:03.107Z,82.12
2018-11-10T04:10:32.763Z,86.17
2018-11-10T04:13:04.304Z,94.13
2018-11-10T04:15:34.263Z,104.58
2018-11-10T04:18:09.823Z,76.23
2018-11-10T04:20:40.835Z,79.20
2018-11-10T04:23:10.980Z,77.65
2018-11-10T04:25:40.692Z,71.25
2018-11-10T04:28:10.576Z,78.10
2018-11-10T04:30:40.283Z,68.30
2018-11-10T04:33:09.911Z,74.53
2018-11-10T04:35:43.291Z,72.50
2018-11-10T04:38:13.147Z,78.90
2018-11-10T04:40:44.995Z,80.72
2018-11-10T04:43:14.855Z,85.40
2018-11-10T04:45:46.855Z,75.90
2018-11-10T04:48:16.623Z,83.50
2018-11-10T04:50:48.388Z,69.57
2018-11-10T04:53:18.467Z,79.37
2018-11-10T04:55:49.164Z,73.28
2018-11-10T04:58:18.935Z,76.12
2018-11-10T05:00:49.467Z,86.92
2018-11-10T05:03:20.291Z,83.03
2018-11-10T05:05:49.835Z,83.27
2018-11-10T05:08:19.367Z,80.05
2018-11-10T05:10:49.199Z,96.65
2018-11-10T05:13:19.124Z,71.47
2018-11-10T05:15:48.965Z,91.28
2018-11-10T05:18:18.647Z,68.63
2018-11-10T05:20:48.891Z,85.75
2018-11-10T05:23:20.651Z,75.85
2018-11-10T05:25:52.083Z,94.62
2018-11-10T05:28:21.799Z,82.50
2018-11-10T05:30:52.760Z,76.85
2018-11-10T05:33:23.683Z,77.33
2018-11-10T05:35:53.587Z,81.60
2018-11-10T05:38:24.499Z,75.60
2018-11-10T05:40:55.585Z,77.40
2018-11-10T05:43:26.321Z,66.02
2018-11-10T05:45:55.916Z,90.83
2018-11-10T05:48:25.548Z,83.70
2018-11-10T05:50:56.434Z,80.32
2018-11-10T05:53:26.154Z,84.17
2018-11-10T05:55:56.837Z,64.05
2018-11-10T05:58:27.575Z,75.83
2018-11-10T06:00:58.523Z,81.72
2018-11-10T06:03:28.040Z,81.25
2018-11-10T06:05:58.907Z,79.00
2018-11-10T06:08:28.563Z,75.15
2018-11-10T06:10:58.124Z,88.33
2018-11-10T06:13:28.068Z,84.28
2018-11-10T06:15:57.939Z,73.30
2018-11-10T06:18:27.880Z,83.62
2018-11-10T06:20:57.566Z,84.92
2018-11-10T06:23:28.184Z,82.45
2018-11-10T06:25:59.105Z,80.40
2018-11-10T06:28:29.872Z,69.22
2018-11-10T06:31:00.744Z,105.80
2018-11-10T06:33:30.432Z,86.85
2018-11-10T06:36:02.236Z,73.87
2018-11-10T06:38:32.880Z,89.75
2018-11-10T06:41:02.628Z,82.15
2018-11-10T06:43:32.280Z,88.75
2018-11-10T06:46:04.079Z,77.15
2018-11-10T06:48:38.411Z,76.20
2018-11-10T06:51:12.164Z,79.07
2018-11-10T06:53:42.924Z,76.80
2018-11-10T06:56:14.535Z,81.72
2018-11-10T06:58:48.582Z,90.90
2018-11-10T07:01:19.456Z,78.33
2018-11-10T07:03:49.339Z,92.25
2018-11-10T07:06:19.952Z,103.20
2018-11-10T07:08:49.564Z,89.15
2018-11-10T07:11:19.137Z,74.63
2018-11-10T07:13:49.920Z,93.45
2018-11-10T07:16:20.851Z,99.40
2018-11-10T07:18:50.520Z,96.37
2018-11-10T07:21:22.296Z,96.32
2018-11-10T07:23:52.224Z,94.63
2018-11-10T07:26:24.208Z,88.50
2018-11-10T07:28:55.120Z,81.43
2018-11-10T07:31:24.852Z,85.77
2018-11-10T07:33:54.687Z,92.47
2018-11-10T07:36:24.556Z,93.35
2018-11-10T07:38:55.352Z,78.43
2018-11-10T07:41:27.079Z,70.53
2018-11-10T07:43:57.792Z,81.07
2018-11-10T07:46:28.660Z,101.87
2018-11-10T07:48:58.484Z,94.03
2018-11-10T07:51:28.081Z,83.53
2018-11-10T07:53:58.894Z,83.30
2018-11-10T07:56:28.912Z,80.60
2018-11-10T07:58:59.860Z,93.05
2018-11-10T08:01:29.616Z,71.55
2018-11-10T08:03:59.200Z,85.03
2018-11-10T08:06:28.788Z,93.97
2018-11-10T08:08:59.696Z,91.10
2018-11-10T08:11:29.239Z,78.20
2018-11-10T08:13:59.784Z,86.03
2018-11-10T08:16:30.200Z,93.10
2018-11-10T08:19:00.795Z,83.50
2018-11-10T08:21:35.032Z,88.87
2018-11-10T08:24:05.179Z,80.10
2018-11-10T08:26:42.748Z,76.67
2018-11-10T08:29:13.532Z,81.77
2018-11-10T08:31:43.422Z,94.07
2018-11-10T08:34:14.285Z,82.97
2018-11-10T08:36:44.176Z,93.43
2018-11-10T08:39:14.094Z,91.07
2018-11-10T08:41:46.843Z,90.63
2018-11-10T08:44:18.531Z,95.07
2018-11-10T08:46:49.252Z,94.17
2018-11-10T08:49:21.636Z,101.63
2018-11-10T08:51:51.688Z,99.00
2018-11-10T08:54:21.551Z,91.73
2018-11-10T08:56:52.372Z,95.93
2018-11-10T08:59:21.984Z,76.43
2018-11-10T09:01:51.732Z,89.70
2018-11-10T09:04:21.596Z,103.63
2018-11-10T09:06:51.460Z,88.87
2018-11-10T09:09:22.292Z,98.70
2018-11-10T09:11:52.168Z,92.33
2018-11-10T09:14:21.732Z,95.30
2018-11-10T09:16:51.420Z,104.10
2018-11-10T09:19:21.132Z,77.77
2018-11-10T09:21:50.865Z,97.00
2018-11-10T09:24:20.352Z,107.73
2018-11-10T09:26:50.973Z,96.00
2018-11-10T09:29:21.564Z,97.43
2018-11-10T09:31:51.072Z,90.33
2018-11-10T09:34:20.776Z,82.10
2018-11-10T09:36:54.364Z,99.20
2018-11-10T09:39:27.377Z,76.17
2018-11-10T09:41:56.971Z,69.67
2018-11-10T09:44:26.680Z,98.43
2018-11-10T09:47:01.085Z,93.00
2018-11-10T09:49:36.747Z,87.10
2018-11-10T09:52:07.311Z,96.53
2018-11-10T09:54:37.859Z,79.27
2018-11-10T09:57:09.692Z,86.50
2018-11-10T09:59:40.552Z,83.27
2018-11-10T10:02:12.670Z,84.87
2018-11-10T10:04:41.940Z,94.03
2018-11-10T10:07:11.464Z,88.57
2018-11-10T10:09:40.972Z,85.83
2018-11-10T10:12:11.420Z,80.53
2018-11-10T10:14:42.176Z,83.77
2018-11-10T10:17:12.030Z,87.07
2018-11-10T10:19:42.856Z,73.30
2018-11-10T10:22:12.500Z,75.87
2018-11-10T10:24:42.416Z,72.63
2018-11-10T10:27:14.068Z,71.63
2018-11-10T10:29:44.964Z,76.67
2018-11-10T10:32:14.609Z,62.30
2018-11-10T10:34:44.265Z,68.43
2018-11-10T10:37:13.592Z,65.27
2018-11-10T10:39:43.116Z,76.17
2018-11-10T10:42:13.568Z,63.77
2018-11-10T10:44:44.092Z,60.90
2018-11-10T10:47:14.832Z,73.03
2018-11-10T10:49:44.640Z,65.83
2018-11-10T10:52:14.200Z,69.93
2018-11-10T10:54:43.868Z,75.77
2018-11-10T10:57:13.788Z,79.10
2018-11-10T10:59:45.522Z,69.27
2018-11-10T11:04:25.536Z,74.77
2018-11-10T11:06:56.208Z,64.70
2018-11-10T11:09:26.855Z,82.43
2018-11-10T11:12:01.072Z,67.07
2018-11-10T11:14:30.524Z,68.73
2018-11-10T11:17:00.028Z,64.40
2018-11-10T11:19:29.487Z,84.10
2018-11-10T11:21:59.372Z,71.43
2018-11-10T11:24:29.172Z,74.83
2018-11-10T11:26:58.792Z,77.60
2018-11-10T11:29:28.734Z,63.03
2018-11-10T11:31:58.379Z,70.10
2018-11-10T11:34:29.076Z,75.80
2018-11-10T11:37:02.120Z,65.57
2018-11-10T11:39:31.620Z,75.57
2018-11-10T11:42:08.040Z,63.10
2018-11-10T11:44:37.700Z,68.40
2018-11-10T11:47:08.200Z,65.07
2018-11-10T11:49:37.979Z,63.87
2018-11-10T11:52:07.492Z,64.93
2018-11-10T11:54:37.028Z,58.73
2018-11-10T11:57:06.784Z,65.87
2018-11-10T11:59:36.614Z,54.07
2018-11-10T12:02:07.262Z,68.10
2018-11-10T12:04:37.986Z,58.27
2018-11-10T12:07:07.516Z,58.33
2018-11-10T12:09:37.469Z,60.13
2018-11-10T12:12:08.321Z,51.40
2018-11-10T12:14:39.064Z,66.17
2018-11-10T12:17:09.796Z,53.83
2018-11-10T12:19:44.244Z,51.37
2018-11-10T12:22:13.860Z,49.20
2018-11-10T12:24:44.456Z,58.43
2018-11-10T12:27:16.628Z,47.20
2018-11-10T12:29:46.304Z,47.93
2018-11-10T12:32:16.813Z,50.47
2018-11-10T12:34:48.904Z,50.37
2018-11-10T12:37:19.440Z,52.13
2018-11-10T12:39:49.232Z,55.27
2018-11-10T12:42:19.040Z,49.97
2018-11-10T12:44:48.645Z,55.13
2018-11-10T12:47:19.395Z,62.87
2018-11-10T12:49:49.960Z,58.70
2018-11-10T12:52:20.558Z,56.93
2018-11-10T12:54:51.245Z,57.80
2018-11-10T12:57:21.076Z,67.13
2018-11-10T12:59:51.652Z,47.67
2018-11-10T13:02:21.123Z,48.87
2018-11-10T13:04:51.808Z,50.97
2018-11-10T13:07:21.452Z,55.10
2018-11-10T13:09:50.932Z,49.17
2018-11-10T13:12:20.624Z,50.50
2018-11-10T13:14:52.452Z,54.37
2018-11-10T13:17:24.307Z,46.83
2018-11-10T13:19:54.764Z,46.80
2018-11-10T13:22:24.536Z,57.70
2018-11-10T13:24:57.496Z,52.27
2018-11-10T13:27:27.309Z,52.37
2018-11-10T13:29:56.887Z,52.70
2018-11-10T13:32:27.442Z,55.17
2018-11-10T13:34:56.992Z,53.10
2018-11-10T13:37:27.495Z,48.03
2018-11-10T13:39:57.988Z,46.83
2018-11-10T13:42:28.535Z,65.90
2018-11-10T13:44:58.032Z,50.37
2018-11-10T13:47:27.588Z,55.67
2018-11-10T13:49:57.330Z,60.60
2018-11-10T13:52:31.817Z,44.03
2018-11-10T13:55:02.336Z,48.17
2018-11-10T13:57:31.966Z,47.03
2018-11-10T14:00:01.552Z,39.37
2018-11-10T14:02:31.160Z,42.67
2018-11-10T14:05:00.752Z,48.33
2018-11-10T14:07:30.620Z,44.80
2018-11-10T14:10:00.296Z,37.00
2018-11-10T14:12:30.197Z,45.17
2018-11-10T14:15:03.628Z,45.17
2018-11-10T14:17:39.029Z,38.27
2018-11-10T14:20:15.185Z,44.03
2018-11-10T14:22:46.716Z,35.73
2018-11-10T14:25:17.059Z,44.37
2018-11-10T14:27:48.972Z,42.90
2018-11-10T14:30:23.552Z,42.50
2018-11-10T14:32:54.100Z,48.60
2018-11-10T14:35:23.684Z,44.17
2018-11-10T14:37:53.196Z,46.97
2018-11-10T14:40:26.419Z,50.20
2018-11-10T14:42:58.012Z,39.97
2018-11-10T14:45:31.144Z,57.10
2018-11-10T14:48:00.760Z,54.07
2018-11-10T14:50:30.664Z,57.53
2018-11-10T14:53:00.345Z,44.10
2018-11-10T14:55:30.012Z,51.33
2018-11-10T14:58:00.584Z,53.03
2018-11-10T15:00:31.328Z,49.27
2018-11-10T15:03:03.192Z,55.23
2018-11-10T15:05:33.873Z,56.53
2018-11-10T15:08:03.632Z,63.13
2018-11-10T15:10:33.228Z,58.17
2018-11-10T15:13:03.020Z,49.67
2018-11-10T15:15:33.650Z,64.77
2018-11-10T15:18:03.179Z,74.37
2018-11-10T15:20:42.988Z,51.10
2018-11-10T15:23:12.888Z,49.67
2018-11-10T15:25:42.739Z,52.60
2018-11-10T15:28:12.513Z,42.23
2018-11-10T15:30:44.092Z,48.67
2018-11-10T15:33:13.852Z,51.10
2018-11-10T15:35:43.528Z,42.70
2018-11-10T15:38:13.051Z,50.07
2018-11-10T15:40:42.869Z,43.63
2018-11-10T15:43:12.436Z,42.30
2018-11-10T15:45:42.152Z,51.67
2018-11-10T15:48:11.800Z,48.67
2018-11-10T15:50:41.560Z,60.20
2018-11-10T15:53:11.224Z,62.50
2018-11-10T15:55:44.668Z,49.17
2018-11-10T15:58:15.451Z,51.27
2018-11-10T16:00:46.249Z,52.47
2018-11-10T16:03:17.132Z,52.07
2018-11-10T16:05:47.721Z,59.23
2018-11-10T16:08:18.200Z,45.53
2018-11-10T16:10:47.964Z,48.80
2018-11-10T16:13:17.812Z,58.30
2018-11-10T16:15:47.492Z,46.90
2018-11-10T16:18:17.312Z,47.40
2018-11-10T16:20:48.130Z,43.50
2018-11-10T16:23:17.940Z,43.87
2018-11-10T16:25:48.608Z,42.00
2018-11-10T16:28:19.128Z,66.23
2018-11-10T16:30:48.756Z,58.35
2018-11-10T16:33:23.433Z,53.50
2018-11-10T16:35:53.313Z,49.73
2018-11-10T16:38:25.245Z,59.60
2018-11-10T16:40:58.777Z,51.10
2018-11-10T16:43:31.848Z,57.10
2018-11-10T16:46:01.653Z,72.37
2018-11-10T16:48:31.193Z,68.20
2018-11-10T16:51:06.581Z,61.90
2018-11-10T16:53:41.041Z,59.60
2018-11-10T16:56:15.208Z,67.90
2018-11-10T16:58:51.211Z,62.47
2018-11-10T17:01:21.836Z,64.83
2018-11-10T17:03:51.715Z,66.00
2018-11-10T17:06:21.620Z,74.73
2018-11-10T17:08:51.438Z,54.27
2018-11-10T17:11:21.104Z,56.87
2018-11-10T17:13:51.804Z,51.80
2018-11-10T17:16:21.732Z,61.87
2018-11-10T17:18:53.347Z,54.63
2018-11-10T17:21:23.924Z,67.37
2018-11-10T17:23:54.621Z,60.33
2018-11-10T17:26:26.457Z,54.90
2018-11-10T17:28:55.992Z,58.58
2018-11-10T17:31:25.797Z,59.10
2018-11-10T17:33:57.144Z,61.40
2018-11-10T17:36:27.264Z,76.47
2018-11-10T17:38:59.126Z,68.47
2018-11-10T17:41:32.012Z,64.65
2018-11-10T17:44:06.456Z,61.18
2018-11-10T17:46:43.520Z,57.23
2018-11-10T17:49:13.516Z,54.50
2018-11-10T17:51:43.196Z,57.63
2018-11-10T17:54:13.032Z,61.68
2018-11-10T17:56:44.892Z,69.80
2018-11-10T17:59:15.548Z,69.60
2018-11-10T18:01:45.284Z,55.15
2018-11-10T18:04:21.588Z,50.52
2018-11-10T18:06:51.281Z,56.00
2018-11-10T18:09:28.957Z,57.60
2018-11-10T18:12:05.548Z,56.83
2018-11-10T18:14:35.564Z,64.47
2018-11-10T18:17:06.572Z,46.30
2018-11-10T18:19:36.236Z,65.67
2018-11-10T18:22:10.796Z,54.30
2018-11-10T18:24:40.542Z,46.37
2018-11-10T18:27:15.912Z,63.83
2018-11-10T18:29:45.549Z,54.77
2018-11-10T18:32:16.377Z,54.00
2018-11-10T18:34:49.840Z,75.32
2018-11-10T18:37:20.705Z,59.98
2018-11-10T18:39:50.674Z,78.62
2018-11-10T18:42:21.621Z,81.67
2018-11-10T18:44:51.583Z,66.10
2018-11-10T18:47:21.325Z,73.02
2018-11-10T18:49:55.020Z,65.32
2018-11-10T18:52:25.869Z,70.72
2018-11-10T18:54:56.636Z,73.92
2018-11-10T18:57:27.561Z,65.15
2018-11-10T18:59:57.085Z,57.20
2018-11-10T19:02:26.557Z,70.92
2018-11-10T19:04:56.408Z,67.72
2018-11-10T19:07:26.205Z,60.45
2018-11-10T19:10:01.448Z,59.03
2018-11-10T19:12:31.280Z,56.90
2018-11-10T19:15:10.324Z,72.82
2018-11-10T19:17:45.005Z,72.78
2018-11-10T19:20:15.130Z,60.17
2018-11-10T19:22:44.944Z,61.92
2018-11-10T19:25:14.956Z,63.75
2018-11-10T19:27:44.536Z,77.58
2018-11-10T19:30:17.427Z,64.87
2018-11-10T19:32:48.141Z,61.85
2018-11-10T19:35:18.626Z,67.32
2018-11-10T19:37:48.509Z,65.75
2018-11-10T19:40:18.228Z,60.35
2018-11-10T19:42:48.028Z,71.53
2018-11-10T19:45:17.619Z,64.20
2018-11-10T19:47:48.217Z,50.83
2018-11-10T19:50:32.725Z,64.30
2018-11-10T19:53:03.268Z,75.37
2018-11-10T19:55:32.793Z,57.20
2018-11-10T19:58:02.333Z,66.85
2018-11-10T20:00:32.255Z,62.88
2018-11-10T20:03:05.388Z,58.37
2018-11-10T20:05:36.153Z,64.75
2018-11-10T20:08:06.965Z,55.65
2018-11-10T20:10:42.148Z,55.67
2018-11-10T20:13:12.209Z,57.75
2018-11-10T20:15:42.029Z,51.42
2018-11-10T20:18:12.005Z,61.80
2018-11-10T20:20:41.873Z,61.35
2018-11-10T20:23:11.516Z,66.30
2018-11-10T20:25:42.102Z,59.20
2018-11-10T20:28:11.844Z,69.62
2018-11-10T20:30:41.593Z,63.17
2018-11-10T20:33:11.184Z,57.67
2018-11-10T20:35:44.700Z,50.90
2018-11-10T20:38:14.424Z,67.22
2018-11-10T20:40:44.324Z,54.05
2018-11-10T20:46:05.509Z,52.03
2018-11-10T20:48:42.897Z,51.90
2018-11-10T20:51:12.590Z,48.42
2018-11-10T20:53:43.259Z,49.93
2018-11-10T20:56:13.881Z,51.10
2018-11-10T20:58:44.656Z,45.63
2018-11-10T21:01:14.553Z,42.80
2018-11-10T21:03:44.229Z,48.92
2018-11-10T21:06:14.729Z,45.35
2018-11-10T21:08:49.632Z,58.17
2018-11-10T21:11:22.370Z,43.52
2018-11-10T21:13:52.140Z,46.15
2018-11-10T21:16:23.159Z,41.48
2018-11-10T21:18:53.105Z,50.25
2018-11-10T21:21:22.981Z,50.38
2018-11-10T21:23:53.834Z,46.50
2018-11-10T21:26:23.541Z,45.95
2018-11-10T21:28:56.638Z,53.05
2018-11-10T21:31:26.289Z,41.73
2018-11-10T21:33:57.116Z,47.08
2018-11-10T21:36:28.897Z,56.10
2018-11-10T21:39:02.925Z,50.28
2018-11-10T21:41:33.780Z,43.48
2018-11-10T21:44:07.608Z,46.37
2018-11-10T21:46:37.385Z,39.30
2018-11-10T21:49:07.389Z,41.73
2018-11-10T21:51:38.237Z,47.40
2018-11-10T21:54:08.860Z,51.35
2018-11-10T21:56:40.673Z,40.15
2018-11-10T21:59:11.577Z,46.77
2018-11-10T22:01:41.477Z,43.65
2018-11-10T22:04:11.145Z,38.90
2018-11-10T22:06:45.113Z,54.08
2018-11-10T22:09:16.860Z,38.30
2018-11-10T22:11:47.349Z,46.68
2018-11-10T22:14:20.738Z,53.95
2018-11-10T22:16:54.612Z,42.47
2018-11-10T22:19:24.308Z,51.83
2018-11-10T22:21:54.963Z,42.25
2018-11-10T22:24:25.774Z,43.85
2018-11-10T22:26:57.537Z,43.58
2018-11-10T22:29:27.161Z,48.85
2018-11-10T22:31:58.805Z,48.30
2018-11-10T22:34:29.821Z,41.92
2018-11-10T22:37:01.499Z,49.67
2018-11-10T22:39:31.272Z,53.00
2018-11-10T22:42:01.214Z,48.15
2018-11-10T22:44:30.901Z,50.80
2018-11-10T22:47:04.753Z,53.08
2018-11-10T22:49:34.317Z,46.83
2018-11-10T22:52:05.205Z,36.77
2018-11-10T22:54:35.821Z,50.50
2018-11-10T22:57:07.090Z,47.95
2018-11-10T22:59:37.661Z,43.87
2018-11-10T23:02:08.481Z,49.42
2018-11-10T23:04:39.149Z,52.10
2018-11-10T23:07:08.687Z,51.80
2018-11-10T23:09:39.281Z,42.53
2018-11-10T23:12:10.833Z,45.08
2018-11-10T23:14:41.405Z,49.98
2018-11-10T23:17:13.928Z,44.37
2018-11-10T23:19:45.676Z,48.45
2018-11-10T23:22:17.397Z,41.80
2018-11-10T23:24:50.661Z,44.60
2018-11-10T23:27:21.197Z,49.58
2018-11-10T23:29:50.741Z,46.48
2018-11-10T23:32:20.497Z,46.85
2018-11-10T23:34:52.165Z,45.77
2018-11-10T23:37:22.681Z,52.40
2018-11-10T23:39:53.529Z,47.90
2018-11-10T23:42:25.261Z,50.17
2018-11-10T23:44:54.769Z,47.93
2018-11-10T23:47:24.585Z,46.80
2018-11-10T23:50:00.209Z,50.27
2018-11-10T23:52:30.413Z,43.92
2018-11-10T23:55:02.098Z,51.70
2018-11-10T23:57:33.057Z,52.75
